sensor_id;sensor_type;location;lat;lon;timestamp;temperature;humidity
14531;DHT22;7352;50.866;4.366;2023-05-29T00:01:28;18.20;99.90
14531;DHT22;7352;50.866;4.366;2023-05-29T00:04:09;18.20;99.50
14531;DHT22;7352;50.866;4.366;2023-05-29T00:06:38;18.10;99.90
14531;DHT22;7352;50.866;4.366;2023-05-29T00:09:11;18.00;99.90
14531;DHT22;7352;50.866;4.366;2023-05-29T00:11:38;18.00;99.90
14531;DHT22;7352;50.866;4.366;2023-05-29T00:14:07;17.90;99.90
14531;DHT22;7352;50.866;4.366;2023-05-29T00:16:38;17.90;99.90
14531;DHT22;7352;50.866;4.366;2023-05-29T00:19:05;17.90;99.90
14531;DHT22;7352;50.866;4.366;2023-05-29T00:21:32;17.70;99.90
14531;DHT22;7352;50.866;4.366;2023-05-29T00:24:01;17.80;99.90
14531;DHT22;7352;50.866;4.366;2023-05-29T00:26:28;17.80;99.90
14531;DHT22;7352;50.866;4.366;2023-05-29T00:28:56;17.60;99.90
14531;DHT22;7352;50.866;4.366;2023-05-29T00:31:25;17.50;99.90
14531;DHT22;7352;50.866;4.366;2023-05-29T00:33:53;17.30;99.90
14531;DHT22;7352;50.866;4.366;2023-05-29T00:36:20;17.40;99.90
14531;DHT22;7352;50.866;4.366;2023-05-29T00:38:47;17.30;99.90
14531;DHT22;7352;50.866;4.366;2023-05-29T00:41:15;17.50;99.90
14531;DHT22;7352;50.866;4.366;2023-05-29T00:43:48;17.40;99.90
14531;DHT22;7352;50.866;4.366;2023-05-29T00:46:16;17.30;99.90
14531;DHT22;7352;50.866;4.366;2023-05-29T00:48:54;17.20;99.90
14531;DHT22;7352;50.866;4.366;2023-05-29T00:51:21;17.10;99.90
14531;DHT22;7352;50.866;4.366;2023-05-29T00:53:50;17.10;99.90
14531;DHT22;7352;50.866;4.366;2023-05-29T00:56:18;17.00;99.90
14531;DHT22;7352;50.866;4.366;2023-05-29T00:58:47;16.80;99.90
14531;DHT22;7352;50.866;4.366;2023-05-29T01:01:18;16.70;99.90
14531;DHT22;7352;50.866;4.366;2023-05-29T01:03:56;16.80;99.90
14531;DHT22;7352;50.866;4.366;2023-05-29T01:06:24;16.60;99.90
14531;DHT22;7352;50.866;4.366;2023-05-29T01:08:52;16.50;99.90
14531;DHT22;7352;50.866;4.366;2023-05-29T01:11:24;16.60;99.90
14531;DHT22;7352;50.866;4.366;2023-05-29T01:13:56;16.70;99.90
14531;DHT22;7352;50.866;4.366;2023-05-29T01:16:30;16.70;99.90
14531;DHT22;7352;50.866;4.366;2023-05-29T01:19:22;16.60;99.90
14531;DHT22;7352;50.866;4.366;2023-05-29T01:22:01;16.60;99.90
14531;DHT22;7352;50.866;4.366;2023-05-29T01:24:39;16.60;99.90
14531;DHT22;7352;50.866;4.366;2023-05-29T01:27:17;16.50;99.90
14531;DHT22;7352;50.866;4.366;2023-05-29T01:29:46;16.40;99.90
14531;DHT22;7352;50.866;4.366;2023-05-29T01:32:13;16.40;99.90
14531;DHT22;7352;50.866;4.366;2023-05-29T01:34:40;16.30;99.90
14531;DHT22;7352;50.866;4.366;2023-05-29T01:37:07;16.40;99.90
14531;DHT22;7352;50.866;4.366;2023-05-29T01:39:36;16.50;99.90
14531;DHT22;7352;50.866;4.366;2023-05-29T01:42:03;16.60;99.90
14531;DHT22;7352;50.866;4.366;2023-05-29T01:44:34;16.60;99.90
14531;DHT22;7352;50.866;4.366;2023-05-29T01:47:02;16.60;99.90
14531;DHT22;7352;50.866;4.366;2023-05-29T01:49:31;16.40;99.90
14531;DHT22;7352;50.866;4.366;2023-05-29T01:51:59;16.50;99.90
14531;DHT22;7352;50.866;4.366;2023-05-29T01:54:25;16.40;99.90
14531;DHT22;7352;50.866;4.366;2023-05-29T01:56:53;16.50;99.90
14531;DHT22;7352;50.866;4.366;2023-05-29T01:59:21;16.50;99.90
14531;DHT22;7352;50.866;4.366;2023-05-29T02:01:50;16.30;99.90
14531;DHT22;7352;50.866;4.366;2023-05-29T02:04:17;16.30;99.90
14531;DHT22;7352;50.866;4.366;2023-05-29T02:06:45;16.20;99.90
14531;DHT22;7352;50.866;4.366;2023-05-29T02:09:12;16.10;99.90
14531;DHT22;7352;50.866;4.366;2023-05-29T02:11:42;16.10;99.90
14531;DHT22;7352;50.866;4.366;2023-05-29T02:14:11;16.10;99.90
14531;DHT22;7352;50.866;4.366;2023-05-29T02:16:39;15.90;99.90
14531;DHT22;7352;50.866;4.366;2023-05-29T02:19:08;16.00;99.90
14531;DHT22;7352;50.866;4.366;2023-05-29T02:21:38;15.90;99.90
14531;DHT22;7352;50.866;4.366;2023-05-29T02:24:05;15.70;99.90
14531;DHT22;7352;50.866;4.366;2023-05-29T02:26:33;15.80;99.90
14531;DHT22;7352;50.866;4.366;2023-05-29T02:29:05;15.90;99.90
14531;DHT22;7352;50.866;4.366;2023-05-29T02:31:32;15.80;99.90
14531;DHT22;7352;50.866;4.366;2023-05-29T02:33:59;15.80;99.90
14531;DHT22;7352;50.866;4.366;2023-05-29T02:36:27;15.70;99.90
14531;DHT22;7352;50.866;4.366;2023-05-29T02:38:54;15.60;99.90
14531;DHT22;7352;50.866;4.366;2023-05-29T02:41:21;15.60;99.90
14531;DHT22;7352;50.866;4.366;2023-05-29T02:43:48;15.80;99.90
14531;DHT22;7352;50.866;4.366;2023-05-29T02:46:17;15.80;99.90
14531;DHT22;7352;50.866;4.366;2023-05-29T02:48:44;15.70;99.90
14531;DHT22;7352;50.866;4.366;2023-05-29T02:51:11;15.60;99.90
14531;DHT22;7352;50.866;4.366;2023-05-29T02:53:39;15.50;99.90
14531;DHT22;7352;50.866;4.366;2023-05-29T02:56:07;15.20;99.90
14531;DHT22;7352;50.866;4.366;2023-05-29T02:58:35;15.30;99.90
14531;DHT22;7352;50.866;4.366;2023-05-29T03:01:03;15.20;99.90
14531;DHT22;7352;50.866;4.366;2023-05-29T03:03:30;15.20;99.90
14531;DHT22;7352;50.866;4.366;2023-05-29T03:05:58;15.20;99.90
14531;DHT22;7352;50.866;4.366;2023-05-29T03:08:26;15.10;99.90
14531;DHT22;7352;50.866;4.366;2023-05-29T03:10:57;15.10;99.90
14531;DHT22;7352;50.866;4.366;2023-05-29T03:13:24;15.00;99.90
14531;DHT22;7352;50.866;4.366;2023-05-29T03:15:52;14.80;99.90
14531;DHT22;7352;50.866;4.366;2023-05-29T03:18:22;14.80;99.90
14531;DHT22;7352;50.866;4.366;2023-05-29T03:20:49;14.80;99.90
14531;DHT22;7352;50.866;4.366;2023-05-29T03:23:17;14.90;99.90
14531;DHT22;7352;50.866;4.366;2023-05-29T03:25:44;14.80;99.90
14531;DHT22;7352;50.866;4.366;2023-05-29T03:28:12;14.80;99.90
14531;DHT22;7352;50.866;4.366;2023-05-29T03:30:39;14.70;99.90
14531;DHT22;7352;50.866;4.366;2023-05-29T03:33:06;14.60;99.90
14531;DHT22;7352;50.866;4.366;2023-05-29T03:35:33;14.60;99.90
14531;DHT22;7352;50.866;4.366;2023-05-29T03:38:07;14.60;99.90
14531;DHT22;7352;50.866;4.366;2023-05-29T03:40:40;14.50;99.90
14531;DHT22;7352;50.866;4.366;2023-05-29T03:43:07;14.60;99.90
14531;DHT22;7352;50.866;4.366;2023-05-29T03:45:36;14.60;99.90
14531;DHT22;7352;50.866;4.366;2023-05-29T03:48:03;14.40;99.90
14531;DHT22;7352;50.866;4.366;2023-05-29T03:50:30;14.40;99.90
14531;DHT22;7352;50.866;4.366;2023-05-29T03:52:57;14.50;99.90
14531;DHT22;7352;50.866;4.366;2023-05-29T03:55:26;14.40;99.90
14531;DHT22;7352;50.866;4.366;2023-05-29T03:57:54;14.30;99.90
14531;DHT22;7352;50.866;4.366;2023-05-29T04:00:21;14.30;99.90
14531;DHT22;7352;50.866;4.366;2023-05-29T04:02:50;14.40;99.90
14531;DHT22;7352;50.866;4.366;2023-05-29T04:05:17;14.40;99.90
14531;DHT22;7352;50.866;4.366;2023-05-29T04:07:44;14.50;99.90
14531;DHT22;7352;50.866;4.366;2023-05-29T04:10:11;14.50;99.90
14531;DHT22;7352;50.866;4.366;2023-05-29T04:12:38;14.50;99.90
14531;DHT22;7352;50.866;4.366;2023-05-29T04:15:06;14.60;99.90
14531;DHT22;7352;50.866;4.366;2023-05-29T04:17:34;14.50;99.90
14531;DHT22;7352;50.866;4.366;2023-05-29T04:20:03;14.50;99.90
14531;DHT22;7352;50.866;4.366;2023-05-29T04:22:34;14.40;99.90
14531;DHT22;7352;50.866;4.366;2023-05-29T04:25:01;14.50;99.90
14531;DHT22;7352;50.866;4.366;2023-05-29T04:27:29;14.40;99.90
14531;DHT22;7352;50.866;4.366;2023-05-29T04:29:57;14.40;99.90
14531;DHT22;7352;50.866;4.366;2023-05-29T04:32:26;14.40;99.90
14531;DHT22;7352;50.866;4.366;2023-05-29T04:34:53;14.20;99.90
14531;DHT22;7352;50.866;4.366;2023-05-29T04:37:28;14.20;99.90
14531;DHT22;7352;50.866;4.366;2023-05-29T04:39:58;14.20;99.90
14531;DHT22;7352;50.866;4.366;2023-05-29T04:42:33;14.20;99.90
14531;DHT22;7352;50.866;4.366;2023-05-29T04:45:00;14.20;99.90
14531;DHT22;7352;50.866;4.366;2023-05-29T04:47:27;14.30;99.90
14531;DHT22;7352;50.866;4.366;2023-05-29T04:49:55;14.20;99.90
14531;DHT22;7352;50.866;4.366;2023-05-29T04:52:22;14.20;99.90
14531;DHT22;7352;50.866;4.366;2023-05-29T04:54:51;14.30;99.90
14531;DHT22;7352;50.866;4.366;2023-05-29T04:57:18;14.30;99.90
14531;DHT22;7352;50.866;4.366;2023-05-29T04:59:45;14.30;99.90
14531;DHT22;7352;50.866;4.366;2023-05-29T05:02:12;14.40;99.90
14531;DHT22;7352;50.866;4.366;2023-05-29T05:04:39;14.20;99.90
14531;DHT22;7352;50.866;4.366;2023-05-29T05:07:08;14.10;99.90
14531;DHT22;7352;50.866;4.366;2023-05-29T05:09:35;14.10;99.90
14531;DHT22;7352;50.866;4.366;2023-05-29T05:12:04;14.10;99.90
14531;DHT22;7352;50.866;4.366;2023-05-29T05:14:31;14.00;99.90
14531;DHT22;7352;50.866;4.366;2023-05-29T05:16:58;14.10;99.90
14531;DHT22;7352;50.866;4.366;2023-05-29T05:19:25;14.20;99.90
14531;DHT22;7352;50.866;4.366;2023-05-29T05:21:53;14.40;99.90
14531;DHT22;7352;50.866;4.366;2023-05-29T05:24:21;14.40;99.90
14531;DHT22;7352;50.866;4.366;2023-05-29T05:26:48;14.30;99.90
14531;DHT22;7352;50.866;4.366;2023-05-29T05:29:17;14.20;99.90
14531;DHT22;7352;50.866;4.366;2023-05-29T05:31:46;14.30;99.90
14531;DHT22;7352;50.866;4.366;2023-05-29T05:34:16;14.20;99.90
14531;DHT22;7352;50.866;4.366;2023-05-29T05:36:43;14.20;99.90
14531;DHT22;7352;50.866;4.366;2023-05-29T05:39:11;14.30;99.90
14531;DHT22;7352;50.866;4.366;2023-05-29T05:41:38;14.20;99.90
14531;DHT22;7352;50.866;4.366;2023-05-29T05:44:06;14.30;99.90
14531;DHT22;7352;50.866;4.366;2023-05-29T05:46:34;14.30;99.90
14531;DHT22;7352;50.866;4.366;2023-05-29T05:49:03;14.30;99.90
14531;DHT22;7352;50.866;4.366;2023-05-29T05:51:31;14.50;99.90
14531;DHT22;7352;50.866;4.366;2023-05-29T05:53:58;14.40;99.90
14531;DHT22;7352;50.866;4.366;2023-05-29T05:56:25;14.50;99.90
14531;DHT22;7352;50.866;4.366;2023-05-29T05:58:52;14.40;99.90
14531;DHT22;7352;50.866;4.366;2023-05-29T06:01:19;14.50;99.90
14531;DHT22;7352;50.866;4.366;2023-05-29T06:03:52;14.60;99.90
14531;DHT22;7352;50.866;4.366;2023-05-29T06:06:19;14.70;99.90
14531;DHT22;7352;50.866;4.366;2023-05-29T06:08:47;14.70;99.90
14531;DHT22;7352;50.866;4.366;2023-05-29T06:11:16;14.70;99.90
14531;DHT22;7352;50.866;4.366;2023-05-29T06:13:43;14.80;99.90
14531;DHT22;7352;50.866;4.366;2023-05-29T06:16:16;14.70;99.90
14531;DHT22;7352;50.866;4.366;2023-05-29T06:18:44;14.80;99.90
14531;DHT22;7352;50.866;4.366;2023-05-29T06:21:13;14.70;99.90
14531;DHT22;7352;50.866;4.366;2023-05-29T06:23:40;14.80;99.90
14531;DHT22;7352;50.866;4.366;2023-05-29T06:26:08;15.00;99.90
14531;DHT22;7352;50.866;4.366;2023-05-29T06:28:35;15.10;99.90
14531;DHT22;7352;50.866;4.366;2023-05-29T06:31:02;15.20;99.90
14531;DHT22;7352;50.866;4.366;2023-05-29T06:33:30;15.30;99.90
14531;DHT22;7352;50.866;4.366;2023-05-29T06:35:57;15.30;99.80
14531;DHT22;7352;50.866;4.366;2023-05-29T06:38:26;15.20;99.40
14531;DHT22;7352;50.866;4.366;2023-05-29T06:40:53;15.20;99.80
14531;DHT22;7352;50.866;4.366;2023-05-29T06:43:20;15.20;99.80
14531;DHT22;7352;50.866;4.366;2023-05-29T06:45:48;15.30;99.70
14531;DHT22;7352;50.866;4.366;2023-05-29T06:48:15;15.10;99.80
14531;DHT22;7352;50.866;4.366;2023-05-29T06:50:42;15.30;99.90
14531;DHT22;7352;50.866;4.366;2023-05-29T06:53:09;15.50;99.70
14531;DHT22;7352;50.866;4.366;2023-05-29T06:55:37;15.50;99.20
14531;DHT22;7352;50.866;4.366;2023-05-29T06:58:06;15.60;98.80
14531;DHT22;7352;50.866;4.366;2023-05-29T07:00:33;15.50;98.60
14531;DHT22;7352;50.866;4.366;2023-05-29T07:03:00;15.50;98.70
14531;DHT22;7352;50.866;4.366;2023-05-29T07:05:28;15.60;98.60
14531;DHT22;7352;50.866;4.366;2023-05-29T07:07:55;15.70;98.50
14531;DHT22;7352;50.866;4.366;2023-05-29T07:10:22;15.80;98.10
14531;DHT22;7352;50.866;4.366;2023-05-29T07:13:00;15.70;97.60
14531;DHT22;7352;50.866;4.366;2023-05-29T07:15:33;15.90;97.90
14531;DHT22;7352;50.866;4.366;2023-05-29T07:18:07;15.80;97.70
14531;DHT22;7352;50.866;4.366;2023-05-29T07:20:36;16.00;97.70
14531;DHT22;7352;50.866;4.366;2023-05-29T07:23:03;16.00;96.90
14531;DHT22;7352;50.866;4.366;2023-05-29T07:25:30;16.00;97.20
14531;DHT22;7352;50.866;4.366;2023-05-29T07:27:57;16.10;96.80
14531;DHT22;7352;50.866;4.366;2023-05-29T07:30:26;16.10;97.10
14531;DHT22;7352;50.866;4.366;2023-05-29T07:32:53;16.10;97.00
14531;DHT22;7352;50.866;4.366;2023-05-29T07:35:20;16.10;96.70
14531;DHT22;7352;50.866;4.366;2023-05-29T07:37:47;16.20;96.70
14531;DHT22;7352;50.866;4.366;2023-05-29T07:40:15;16.40;96.60
14531;DHT22;7352;50.866;4.366;2023-05-29T07:42:42;16.40;95.90
14531;DHT22;7352;50.866;4.366;2023-05-29T07:45:09;16.40;96.10
14531;DHT22;7352;50.866;4.366;2023-05-29T07:47:38;16.50;95.60
14531;DHT22;7352;50.866;4.366;2023-05-29T07:50:06;16.50;95.50
14531;DHT22;7352;50.866;4.366;2023-05-29T07:52:33;16.30;96.00
14531;DHT22;7352;50.866;4.366;2023-05-29T07:55:00;16.40;95.90
14531;DHT22;7352;50.866;4.366;2023-05-29T07:57:33;16.50;95.60
14531;DHT22;7352;50.866;4.366;2023-05-29T08:00:01;16.60;96.10
14531;DHT22;7352;50.866;4.366;2023-05-29T08:02:33;16.90;95.70
14531;DHT22;7352;50.866;4.366;2023-05-29T08:05:04;17.10;94.80
14531;DHT22;7352;50.866;4.366;2023-05-29T08:07:33;17.30;94.70
14531;DHT22;7352;50.866;4.366;2023-05-29T08:10:02;17.30;94.90
14531;DHT22;7352;50.866;4.366;2023-05-29T08:12:30;17.40;94.90
14531;DHT22;7352;50.866;4.366;2023-05-29T08:15:01;17.30;94.70
14531;DHT22;7352;50.866;4.366;2023-05-29T08:17:28;17.30;94.80
14531;DHT22;7352;50.866;4.366;2023-05-29T08:19:55;17.40;94.60
14531;DHT22;7352;50.866;4.366;2023-05-29T08:22:29;17.60;94.00
14531;DHT22;7352;50.866;4.366;2023-05-29T08:24:56;17.40;94.10
14531;DHT22;7352;50.866;4.366;2023-05-29T08:27:24;17.40;94.90
14531;DHT22;7352;50.866;4.366;2023-05-29T08:29:52;17.50;94.60
14531;DHT22;7352;50.866;4.366;2023-05-29T08:32:20;17.60;94.40
14531;DHT22;7352;50.866;4.366;2023-05-29T08:34:47;17.70;93.80
14531;DHT22;7352;50.866;4.366;2023-05-29T08:37:15;17.80;94.30
14531;DHT22;7352;50.866;4.366;2023-05-29T08:39:44;17.90;94.20
14531;DHT22;7352;50.866;4.366;2023-05-29T08:42:20;18.10;94.00
14531;DHT22;7352;50.866;4.366;2023-05-29T08:44:52;18.20;93.20
14531;DHT22;7352;50.866;4.366;2023-05-29T08:47:33;18.10;93.00
14531;DHT22;7352;50.866;4.366;2023-05-29T08:50:07;18.10;92.90
14531;DHT22;7352;50.866;4.366;2023-05-29T08:52:35;17.90;93.10
14531;DHT22;7352;50.866;4.366;2023-05-29T08:55:04;17.90;93.10
14531;DHT22;7352;50.866;4.366;2023-05-29T08:57:32;17.90;93.60
14531;DHT22;7352;50.866;4.366;2023-05-29T09:00:01;17.90;93.10
14531;DHT22;7352;50.866;4.366;2023-05-29T09:02:34;17.90;93.60
14531;DHT22;7352;50.866;4.366;2023-05-29T09:05:03;17.90;93.00
14531;DHT22;7352;50.866;4.366;2023-05-29T09:07:32;18.00;93.00
14531;DHT22;7352;50.866;4.366;2023-05-29T09:09:59;18.00;93.00
14531;DHT22;7352;50.866;4.366;2023-05-29T09:12:31;18.30;92.60
14531;DHT22;7352;50.866;4.366;2023-05-29T09:15:16;18.40;92.40
14531;DHT22;7352;50.866;4.366;2023-05-29T09:17:53;18.40;92.20
14531;DHT22;7352;50.866;4.366;2023-05-29T09:20:32;18.40;92.40
14531;DHT22;7352;50.866;4.366;2023-05-29T09:23:02;18.40;92.40
14531;DHT22;7352;50.866;4.366;2023-05-29T09:25:31;18.60;92.50
14531;DHT22;7352;50.866;4.366;2023-05-29T09:28:01;18.80;92.40
14531;DHT22;7352;50.866;4.366;2023-05-29T09:30:37;18.70;91.70
14531;DHT22;7352;50.866;4.366;2023-05-29T09:33:05;18.80;91.90
14531;DHT22;7352;50.866;4.366;2023-05-29T09:35:34;18.80;91.70
14531;DHT22;7352;50.866;4.366;2023-05-29T09:38:02;18.90;92.00
14531;DHT22;7352;50.866;4.366;2023-05-29T09:40:30;19.00;91.10
14531;DHT22;7352;50.866;4.366;2023-05-29T09:43:04;18.80;91.70
14531;DHT22;7352;50.866;4.366;2023-05-29T09:45:36;18.70;91.70
14531;DHT22;7352;50.866;4.366;2023-05-29T09:48:05;18.70;91.70
14531;DHT22;7352;50.866;4.366;2023-05-29T09:50:32;18.60;91.20
14531;DHT22;7352;50.866;4.366;2023-05-29T09:53:00;18.70;90.90
14531;DHT22;7352;50.866;4.366;2023-05-29T09:55:30;18.90;90.50
14531;DHT22;7352;50.866;4.366;2023-05-29T09:57:59;18.90;90.70
14531;DHT22;7352;50.866;4.366;2023-05-29T10:00:33;19.00;90.70
14531;DHT22;7352;50.866;4.366;2023-05-29T10:03:00;19.00;91.20
14531;DHT22;7352;50.866;4.366;2023-05-29T10:05:30;19.10;91.40
14531;DHT22;7352;50.866;4.366;2023-05-29T10:08:00;19.10;91.40
14531;DHT22;7352;50.866;4.366;2023-05-29T10:10:29;19.30;91.30
14531;DHT22;7352;50.866;4.366;2023-05-29T10:12:57;19.20;90.70
14531;DHT22;7352;50.866;4.366;2023-05-29T10:15:31;19.30;90.80
14531;DHT22;7352;50.866;4.366;2023-05-29T10:18:02;19.40;90.60
14531;DHT22;7352;50.866;4.366;2023-05-29T10:20:33;19.50;90.90
14531;DHT22;7352;50.866;4.366;2023-05-29T10:23:01;19.60;90.40
14531;DHT22;7352;50.866;4.366;2023-05-29T10:25:32;19.70;90.50
14531;DHT22;7352;50.866;4.366;2023-05-29T10:28:01;19.80;89.70
14531;DHT22;7352;50.866;4.366;2023-05-29T10:30:37;19.90;89.30
14531;DHT22;7352;50.866;4.366;2023-05-29T10:33:31;19.70;89.60
14531;DHT22;7352;50.866;4.366;2023-05-29T10:36:04;19.60;90.00
14531;DHT22;7352;50.866;4.366;2023-05-29T10:38:34;19.40;90.30
14531;DHT22;7352;50.866;4.366;2023-05-29T10:41:29;19.70;90.00
14531;DHT22;7352;50.866;4.366;2023-05-29T10:43:58;19.80;89.50
14531;DHT22;7352;50.866;4.366;2023-05-29T10:49:27;20.00;88.20
14531;DHT22;7352;50.866;4.366;2023-05-29T10:51:57;20.00;87.90
14531;DHT22;7352;50.866;4.366;2023-05-29T10:54:26;20.00;88.00
14531;DHT22;7352;50.866;4.366;2023-05-29T10:56:55;20.10;88.50
14531;DHT22;7352;50.866;4.366;2023-05-29T10:59:23;20.10;87.30
14531;DHT22;7352;50.866;4.366;2023-05-29T11:01:53;20.10;87.60
14531;DHT22;7352;50.866;4.366;2023-05-29T11:04:29;20.30;87.10
14531;DHT22;7352;50.866;4.366;2023-05-29T11:06:58;20.40;86.10
14531;DHT22;7352;50.866;4.366;2023-05-29T11:09:30;20.40;86.10
14531;DHT22;7352;50.866;4.366;2023-05-29T11:12:15;20.50;86.90
14531;DHT22;7352;50.866;4.366;2023-05-29T11:14:56;20.60;86.00
14531;DHT22;7352;50.866;4.366;2023-05-29T11:17:30;20.60;85.10
14531;DHT22;7352;50.866;4.366;2023-05-29T11:20:01;20.70;85.30
14531;DHT22;7352;50.866;4.366;2023-05-29T11:22:44;20.90;86.40
14531;DHT22;7352;50.866;4.366;2023-05-29T11:25:14;20.90;85.10
14531;DHT22;7352;50.866;4.366;2023-05-29T11:27:44;20.90;84.50
14531;DHT22;7352;50.866;4.366;2023-05-29T11:30:12;20.90;85.20
14531;DHT22;7352;50.866;4.366;2023-05-29T11:32:40;20.90;86.00
14531;DHT22;7352;50.866;4.366;2023-05-29T11:35:12;20.80;86.20
14531;DHT22;7352;50.866;4.366;2023-05-29T11:37:42;21.00;84.80
14531;DHT22;7352;50.866;4.366;2023-05-29T11:40:10;21.00;84.80
14531;DHT22;7352;50.866;4.366;2023-05-29T11:42:41;20.80;84.60
14531;DHT22;7352;50.866;4.366;2023-05-29T11:45:12;21.10;84.60
14531;DHT22;7352;50.866;4.366;2023-05-29T11:47:55;21.20;84.90
14531;DHT22;7352;50.866;4.366;2023-05-29T11:50:27;21.20;84.20
14531;DHT22;7352;50.866;4.366;2023-05-29T11:52:56;21.20;84.00
14531;DHT22;7352;50.866;4.366;2023-05-29T11:55:26;21.30;83.00
14531;DHT22;7352;50.866;4.366;2023-05-29T11:57:57;21.40;85.00
14531;DHT22;7352;50.866;4.366;2023-05-29T12:00:24;21.40;83.90
14531;DHT22;7352;50.866;4.366;2023-05-29T12:02:52;21.70;82.70
14531;DHT22;7352;50.866;4.366;2023-05-29T12:05:19;21.80;81.80
14531;DHT22;7352;50.866;4.366;2023-05-29T12:07:51;21.70;81.80
14531;DHT22;7352;50.866;4.366;2023-05-29T12:10:20;21.60;82.30
14531;DHT22;7352;50.866;4.366;2023-05-29T12:12:47;21.60;81.50
14531;DHT22;7352;50.866;4.366;2023-05-29T12:15:15;21.70;82.60
14531;DHT22;7352;50.866;4.366;2023-05-29T12:17:43;21.70;81.30
14531;DHT22;7352;50.866;4.366;2023-05-29T12:20:12;22.00;80.60
14531;DHT22;7352;50.866;4.366;2023-05-29T12:22:41;22.20;79.80
14531;DHT22;7352;50.866;4.366;2023-05-29T12:25:12;22.30;80.20
14531;DHT22;7352;50.866;4.366;2023-05-29T12:27:41;22.50;80.30
14531;DHT22;7352;50.866;4.366;2023-05-29T12:30:10;22.30;79.30
14531;DHT22;7352;50.866;4.366;2023-05-29T12:32:38;22.10;79.50
14531;DHT22;7352;50.866;4.366;2023-05-29T12:35:19;22.00;79.90
14531;DHT22;7352;50.866;4.366;2023-05-29T12:37:47;21.70;81.60
14531;DHT22;7352;50.866;4.366;2023-05-29T12:40:19;21.80;80.70
14531;DHT22;7352;50.866;4.366;2023-05-29T12:42:49;21.80;81.00
14531;DHT22;7352;50.866;4.366;2023-05-29T12:45:20;21.70;81.60
14531;DHT22;7352;50.866;4.366;2023-05-29T12:47:52;21.80;81.00
14531;DHT22;7352;50.866;4.366;2023-05-29T12:50:23;21.90;79.70
14531;DHT22;7352;50.866;4.366;2023-05-29T12:52:54;21.90;81.20
14531;DHT22;7352;50.866;4.366;2023-05-29T12:55:23;22.00;80.80
14531;DHT22;7352;50.866;4.366;2023-05-29T12:57:50;22.00;81.40
14531;DHT22;7352;50.866;4.366;2023-05-29T13:00:18;22.20;81.00
14531;DHT22;7352;50.866;4.366;2023-05-29T13:02:45;22.30;80.20
14531;DHT22;7352;50.866;4.366;2023-05-29T13:05:13;22.40;79.50
14531;DHT22;7352;50.866;4.366;2023-05-29T13:07:41;22.30;80.80
14531;DHT22;7352;50.866;4.366;2023-05-29T13:10:09;22.40;81.00
14531;DHT22;7352;50.866;4.366;2023-05-29T13:12:38;22.70;78.60
14531;DHT22;7352;50.866;4.366;2023-05-29T13:15:06;22.90;78.00
14531;DHT22;7352;50.866;4.366;2023-05-29T13:17:33;23.20;77.10
14531;DHT22;7352;50.866;4.366;2023-05-29T13:20:00;23.40;76.50
14531;DHT22;7352;50.866;4.366;2023-05-29T13:22:27;23.60;76.30
14531;DHT22;7352;50.866;4.366;2023-05-29T13:24:57;23.60;76.70
14531;DHT22;7352;50.866;4.366;2023-05-29T13:27:24;23.60;76.40
14531;DHT22;7352;50.866;4.366;2023-05-29T13:29:55;23.20;77.20
14531;DHT22;7352;50.866;4.366;2023-05-29T13:32:22;23.20;77.80
14531;DHT22;7352;50.866;4.366;2023-05-29T13:34:49;23.30;77.10
14531;DHT22;7352;50.866;4.366;2023-05-29T13:37:16;23.40;76.20
14531;DHT22;7352;50.866;4.366;2023-05-29T13:39:44;23.40;77.10
14531;DHT22;7352;50.866;4.366;2023-05-29T13:42:11;23.30;76.60
14531;DHT22;7352;50.866;4.366;2023-05-29T13:44:38;23.50;76.90
14531;DHT22;7352;50.866;4.366;2023-05-29T13:47:07;23.70;76.30
14531;DHT22;7352;50.866;4.366;2023-05-29T13:49:34;24.00;75.10
14531;DHT22;7352;50.866;4.366;2023-05-29T13:52:02;24.40;74.50
14531;DHT22;7352;50.866;4.366;2023-05-29T13:54:31;24.60;74.10
14531;DHT22;7352;50.866;4.366;2023-05-29T13:57:02;24.80;74.00
14531;DHT22;7352;50.866;4.366;2023-05-29T13:59:31;24.40;74.20
14531;DHT22;7352;50.866;4.366;2023-05-29T14:01:58;24.50;73.30
14531;DHT22;7352;50.866;4.366;2023-05-29T14:04:28;24.70;74.60
14531;DHT22;7352;50.866;4.366;2023-05-29T14:06:55;24.80;73.40
14531;DHT22;7352;50.866;4.366;2023-05-29T14:09:24;25.00;71.60
14531;DHT22;7352;50.866;4.366;2023-05-29T14:11:54;25.00;72.00
14531;DHT22;7352;50.866;4.366;2023-05-29T14:14:22;25.00;72.10
14531;DHT22;7352;50.866;4.366;2023-05-29T14:16:49;25.30;72.50
14531;DHT22;7352;50.866;4.366;2023-05-29T14:19:17;25.30;72.50
14531;DHT22;7352;50.866;4.366;2023-05-29T14:21:45;25.30;70.40
14531;DHT22;7352;50.866;4.366;2023-05-29T14:24:12;25.30;69.50
14531;DHT22;7352;50.866;4.366;2023-05-29T14:26:41;25.40;71.00
14531;DHT22;7352;50.866;4.366;2023-05-29T14:29:12;25.40;70.60
14531;DHT22;7352;50.866;4.366;2023-05-29T14:31:40;25.40;70.80
14531;DHT22;7352;50.866;4.366;2023-05-29T14:34:07;25.50;70.70
14531;DHT22;7352;50.866;4.366;2023-05-29T14:36:34;25.60;70.40
14531;DHT22;7352;50.866;4.366;2023-05-29T14:39:04;25.70;68.60
14531;DHT22;7352;50.866;4.366;2023-05-29T14:41:31;25.70;68.70
14531;DHT22;7352;50.866;4.366;2023-05-29T14:43:59;25.90;68.80
14531;DHT22;7352;50.866;4.366;2023-05-29T14:46:26;26.00;67.80
14531;DHT22;7352;50.866;4.366;2023-05-29T14:48:57;25.80;67.50
14531;DHT22;7352;50.866;4.366;2023-05-29T14:51:24;25.60;68.60
14531;DHT22;7352;50.866;4.366;2023-05-29T14:53:51;25.70;69.40
14531;DHT22;7352;50.866;4.366;2023-05-29T14:56:23;25.90;70.20
14531;DHT22;7352;50.866;4.366;2023-05-29T14:58:50;26.10;69.00
14531;DHT22;7352;50.866;4.366;2023-05-29T15:01:18;25.80;68.20
14531;DHT22;7352;50.866;4.366;2023-05-29T15:03:46;25.70;68.30
14531;DHT22;7352;50.866;4.366;2023-05-29T15:06:13;25.90;68.90
14531;DHT22;7352;50.866;4.366;2023-05-29T15:08:40;26.20;67.50
14531;DHT22;7352;50.866;4.366;2023-05-29T15:11:08;26.30;67.00
14531;DHT22;7352;50.866;4.366;2023-05-29T15:13:39;26.20;65.30
14531;DHT22;7352;50.866;4.366;2023-05-29T15:16:06;25.80;66.10
14531;DHT22;7352;50.866;4.366;2023-05-29T15:18:33;25.70;66.30
14531;DHT22;7352;50.866;4.366;2023-05-29T15:21:03;25.80;66.60
14531;DHT22;7352;50.866;4.366;2023-05-29T15:23:30;25.60;66.80
14531;DHT22;7352;50.866;4.366;2023-05-29T15:26:01;25.50;67.10
14531;DHT22;7352;50.866;4.366;2023-05-29T15:28:28;25.50;66.20
14531;DHT22;7352;50.866;4.366;2023-05-29T15:30:57;25.60;67.10
14531;DHT22;7352;50.866;4.366;2023-05-29T15:33:24;25.70;65.40
14531;DHT22;7352;50.866;4.366;2023-05-29T15:35:51;25.80;64.80
14531;DHT22;7352;50.866;4.366;2023-05-29T15:38:19;25.60;64.80
14531;DHT22;7352;50.866;4.366;2023-05-29T15:40:46;25.60;64.80
14531;DHT22;7352;50.866;4.366;2023-05-29T15:43:15;25.50;64.90
14531;DHT22;7352;50.866;4.366;2023-05-29T15:45:47;25.80;64.80
14531;DHT22;7352;50.866;4.366;2023-05-29T15:48:32;25.70;64.10
14531;DHT22;7352;50.866;4.366;2023-05-29T15:51:14;26.00;64.30
14531;DHT22;7352;50.866;4.366;2023-05-29T15:53:42;25.80;63.80
14531;DHT22;7352;50.866;4.366;2023-05-29T15:56:09;25.10;63.50
14531;DHT22;7352;50.866;4.366;2023-05-29T15:58:36;25.00;63.60
14531;DHT22;7352;50.866;4.366;2023-05-29T16:01:03;25.10;63.20